Time;durP1;ratioP1;P1;durP2;ratioP2;P2;SDS_P1;SDS_P2;PMS_P1;PMS_P2;Temp;Humidity;BMP_temperature;BMP_pressure;BME280_temperature;BME280_humidity;BME280_pressure;Samples;Min_cycle;Max_cycle;Signal;HPM_P1;HPM_P2
2022/09/23 00:00:33;;;;;;;3.28;2.42;;;;;;;9.39;70.76;99252.84;5041577;28;20040;-77
2022/09/23 00:02:59;;;;;;;3.80;2.50;;;;;;;9.28;70.69;99251.78;5037866;28;20035;-78
2022/09/23 00:05:25;;;;;;;2.42;2.17;;;;;;;9.33;71.05;99253.75;5059939;28;20036;-77
2022/09/23 00:07:51;;;;;;;10.40;3.05;;;;;;;9.36;70.61;99253.28;5065914;28;20411;-77
2022/09/23 00:10:17;;;;;;;6.78;2.72;;;;;;;9.31;71.31;99256.66;5047535;28;20028;-77
2022/09/23 00:12:42;;;;;;;2.25;1.90;;;;;;;9.29;70.95;99260.56;5056679;28;20040;-76
2022/09/23 00:15:10;;;;;;;5.03;2.72;;;;;;;9.31;71.29;99251.31;5033041;28;20118;-77
2022/09/23 00:17:35;;;;;;;5.38;2.15;;;;;;;9.26;71.00;99245.84;5051651;28;20043;-77
2022/09/23 00:20:01;;;;;;;3.00;1.95;;;;;;;9.26;70.28;99256.50;5054933;28;20036;-77
2022/09/23 00:22:26;;;;;;;5.43;2.58;;;;;;;9.22;70.81;99255.34;5055085;28;20154;-77
2022/09/23 00:24:51;;;;;;;2.28;2.00;;;;;;;9.20;71.35;99251.28;5052251;28;20394;-77
2022/09/23 00:27:19;;;;;;;3.42;2.17;;;;;;;9.15;71.56;99249.34;5052266;28;20390;-77
2022/09/23 00:29:45;;;;;;;5.75;2.38;;;;;;;9.21;71.03;99237.78;5042708;28;20032;-76
2022/09/23 00:32:11;;;;;;;2.38;2.17;;;;;;;9.20;70.80;99243.31;5062991;28;20020;-76
2022/09/23 00:34:36;;;;;;;2.53;2.20;;;;;;;9.16;71.07;99240.31;5025958;28;20116;-75
2022/09/23 00:37:01;;;;;;;4.43;2.00;;;;;;;9.19;71.11;99234.53;5056951;28;20401;-75
2022/09/23 00:39:27;;;;;;;3.97;2.25;;;;;;;9.16;71.31;99240.31;5032468;28;20130;-75
2022/09/23 00:41:53;;;;;;;5.18;2.42;;;;;;;9.17;71.17;99235.78;5052880;28;20024;-75
2022/09/23 00:44:48;;;;;;;3.75;2.50;;;;;;;9.10;71.39;99235.09;5052591;28;20371;-76
2022/09/23 00:47:41;;;;;;;2.13;2.00;;;;;;;9.12;71.03;99235.66;5061614;28;20092;-76
2022/09/23 00:50:15;;;;;;;3.35;2.33;;;;;;;9.12;71.20;99227.66;5050900;28;20021;-76
2022/09/23 00:52:41;;;;;;;4.20;2.47;;;;;;;9.09;71.19;99225.50;5058143;28;20032;-76
2022/09/23 00:55:15;;;;;;;2.47;2.05;;;;;;;9.02;71.49;99221.06;5032331;28;20032;-76
2022/09/23 00:57:42;;;;;;;3.08;2.00;;;;;;;9.06;71.57;99218.75;5053780;28;20091;-76
2022/09/23 01:00:08;;;;;;;2.20;2.10;;;;;;;9.03;71.06;99220.03;5048059;28;20052;-76
2022/09/23 01:02:36;;;;;;;4.18;2.20;;;;;;;8.94;71.23;99212.59;5053179;28;20062;-76
2022/09/23 01:05:04;;;;;;;4.10;2.42;;;;;;;9.02;70.70;99213.06;5060841;28;20036;-76
2022/09/23 01:07:30;;;;;;;4.00;2.42;;;;;;;8.96;70.57;99214.00;5052047;28;20040;-76
2022/09/23 01:09:58;;;;;;;3.38;2.03;;;;;;;8.92;71.29;99212.00;5038594;28;20028;-76
2022/09/23 01:12:39;;;;;;;3.95;2.67;;;;;;;8.90;71.51;99201.59;5056906;28;20111;-76
2022/09/23 01:15:20;;;;;;;4.82;2.38;;;;;;;8.98;71.40;99213.75;5057591;28;20038;-76
2022/09/23 01:18:16;;;;;;;3.15;2.10;;;;;;;8.95;71.12;99204.38;5050359;28;20029;-76
2022/09/23 01:20:55;;;;;;;4.60;2.38;;;;;;;8.86;71.55;99205.75;5054057;28;20040;-76
2022/09/23 01:23:37;;;;;;;3.38;2.50;;;;;;;8.84;72.03;99202.53;5029288;28;20036;-76
2022/09/23 01:26:12;;;;;;;2.35;2.08;;;;;;;8.85;71.94;99195.31;5052413;28;20025;-76
2022/09/23 01:29:15;;;;;;;5.00;2.57;;;;;;;8.82;71.68;99193.94;5058044;28;20032;-76
2022/09/23 01:32:08;;;;;;;5.35;2.35;;;;;;;8.83;71.99;99195.56;5054677;28;20075;-76
2022/09/23 01:34:38;;;;;;;4.65;2.20;;;;;;;8.82;72.01;99187.81;5054622;28;20025;-76
2022/09/23 01:37:09;;;;;;;3.47;2.03;;;;;;;8.83;71.63;99189.41;5056584;28;20520;-76
2022/09/23 01:39:51;;;;;;;3.88;2.60;;;;;;;8.82;72.14;99191.25;5058772;28;20485;-76
2022/09/23 01:42:28;;;;;;;3.33;2.20;;;;;;;8.78;71.74;99176.78;5057545;28;20140;-76
2022/09/23 01:45:09;;;;;;;5.63;2.92;;;;;;;8.75;72.56;99182.59;5036336;28;20036;-76
2022/09/23 01:47:49;;;;;;;4.15;2.67;;;;;;;8.67;71.95;99171.47;5060088;28;20029;-75
2022/09/23 01:53:13;;;;;;;3.60;2.33;;;;;;;8.65;71.48;99184.19;5052769;28;20040;-75
2022/09/23 01:55:46;;;;;;;4.28;2.65;;;;;;;8.68;71.87;99181.88;5060162;28;20036;-75
2022/09/23 01:58:27;;;;;;;4.05;2.67;;;;;;;8.66;72.26;99181.28;5049476;28;20021;-75
2022/09/23 02:01:01;;;;;;;5.35;2.47;;;;;;;8.66;71.86;99186.63;5055991;28;20519;-75
2022/09/23 02:03:35;;;;;;;3.47;2.42;;;;;;;8.57;72.50;99172.00;5054896;28;20032;-75
2022/09/23 02:06:07;;;;;;;8.50;2.75;;;;;;;8.60;72.37;99176.06;5059402;28;20115;-78
2022/09/23 02:08:59;;;;;;;3.72;2.85;;;;;;;8.62;72.03;99180.13;5054855;28;20033;-75
2022/09/23 02:11:26;;;;;;;3.50;2.30;;;;;;;8.58;71.92;99176.31;5025937;28;20029;-74
2022/09/23 02:13:54;;;;;;;4.43;2.58;;;;;;;8.55;72.54;99165.28;5017104;28;20440;-75
2022/09/23 02:16:30;;;;;;;2.50;2.30;;;;;;;8.60;71.82;99173.41;5055778;28;20116;-76
2022/09/23 02:19:19;;;;;;;;;;;;;;;8.60;71.95;99166.25;5057615;28;20017;-78
2022/09/23 02:21:57;;;;;;;2.55;2.35;;;;;;;8.59;71.83;99164.63;5054240;28;19916;-78
2022/09/23 02:24:33;;;;;;;4.65;2.60;;;;;;;8.51;72.93;99169.44;5054611;28;20028;-78
2022/09/23 02:27:23;;;;;;;2.80;2.25;;;;;;;8.51;72.49;99169.44;5060511;28;20024;-78
2022/09/23 02:30:11;;;;;;;3.92;2.83;;;;;;;8.51;72.87;99166.78;5039940;28;20610;-79
2022/09/23 02:33:23;;;;;;;4.32;2.92;;;;;;;8.48;71.58;99164.56;5060351;28;20054;-78
2022/09/23 02:36:05;;;;;;;2.90;2.20;;;;;;;8.44;72.41;99163.41;5056503;28;20029;-78
2022/09/23 02:38:59;;;;;;;3.05;2.75;;;;;;;8.47;72.54;99165.63;5054780;28;21838;-78
2022/09/23 02:41:31;;;;;;;3.58;2.58;;;;;;;8.44;72.52;99150.09;5039960;28;20622;-77
2022/09/23 02:44:01;;;;;;;4.07;2.90;;;;;;;8.41;72.53;99158.56;5055756;28;20028;-77
2022/09/23 02:46:28;;;;;;;3.85;2.45;;;;;;;8.37;72.11;99162.69;5054736;28;20028;-77
2022/09/23 02:49:05;;;;;;;3.03;2.13;;;;;;;8.37;72.86;99157.38;5061225;28;20032;-77
2022/09/23 02:51:36;;;;;;;4.97;2.55;;;;;;;8.30;72.64;99157.47;5048909;28;20052;-79
2022/09/23 02:54:03;;;;;;;5.20;2.50;;;;;;;8.23;72.79;99151.41;5061317;28;20044;-79
2022/09/23 02:56:28;;;;;;;2.70;2.30;;;;;;;8.28;73.02;99162.19;5062497;28;20032;-79
2022/09/23 02:58:55;;;;;;;2.70;2.45;;;;;;;8.25;72.79;99152.00;5057039;28;20382;-76
2022/09/23 03:01:55;;;;;;;3.83;2.58;;;;;;;8.31;73.02;99140.47;5034541;28;20032;-75
2022/09/23 03:04:24;;;;;;;2.50;2.28;;;;;;;8.24;72.13;99153.03;5058769;28;20084;-78
2022/09/23 03:06:49;;;;;;;4.90;2.83;;;;;;;8.24;73.18;99147.69;5044034;28;20097;-76
2022/09/23 03:09:32;;;;;;;3.05;2.75;;;;;;;8.24;73.02;99145.03;5063356;28;20084;-77
2022/09/23 03:12:21;;;;;;;3.08;2.38;;;;;;;8.21;72.80;99145.50;5061415;28;20044;-78
2022/09/23 03:14:57;;;;;;;2.63;2.08;;;;;;;8.25;72.34;99144.88;5058051;28;20025;-76
2022/09/23 03:17:36;;;;;;;4.13;2.60;;;;;;;8.16;72.39;99137.41;5056174;28;20489;-78
2022/09/23 03:20:22;;;;;;;4.10;2.10;;;;;;;8.22;73.20;99131.16;5046819;28;20043;-77
2022/09/23 03:22:53;;;;;;;5.97;2.85;;;;;;;8.17;72.72;99137.16;5056806;28;20029;-78
2022/09/23 03:25:22;;;;;;;5.38;2.65;;;;;;;8.09;72.75;99131.34;5059271;28;20028;-78
2022/09/23 03:27:49;;;;;;;2.70;2.50;;;;;;;8.15;72.28;99130.44;5033520;28;20049;-76
2022/09/23 03:30:17;;;;;;;2.45;2.25;;;;;;;8.11;72.60;99132.75;5066779;28;20043;-78
2022/09/23 03:32:45;;;;;;;4.55;2.42;;;;;;;8.11;72.51;99130.09;5066311;28;20389;-76
2022/09/23 03:35:13;;;;;;;5.53;3.03;;;;;;;8.05;72.38;99116.91;5058966;28;21795;-76
2022/09/23 03:37:46;;;;;;;6.75;2.72;;;;;;;8.06;72.74;99121.97;5060022;28;20025;-76
2022/09/23 03:40:25;;;;;;;2.95;2.35;;;;;;;8.01;73.10;99113.88;5053936;28;20029;-77
2022/09/23 03:42:54;;;;;;;4.00;2.35;;;;;;;8.01;73.05;99116.53;5054258;28;20032;-77
2022/09/23 03:45:25;;;;;;;2.90;2.50;;;;;;;7.99;72.65;99112.47;5058841;28;20728;-76
2022/09/23 03:47:51;;;;;;;3.63;2.63;;;;;;;7.91;73.45;99112.78;5063799;28;20048;-77
2022/09/23 03:50:17;;;;;;;2.80;2.42;;;;;;;7.93;72.75;99119.50;5039478;28;20037;-81
2022/09/23 03:52:44;;;;;;;6.43;2.88;;;;;;;7.88;73.08;99103.44;5037658;28;20032;-80
2022/09/23 03:55:10;;;;;;;4.57;2.25;;;;;;;7.95;72.98;99106.78;5042997;28;20055;-79
2022/09/23 03:57:36;;;;;;;3.95;2.42;;;;;;;7.87;73.22;99101.78;5058525;28;20021;-75
2022/09/23 04:00:06;;;;;;;3.08;2.78;;;;;;;7.91;73.77;99104.81;5053021;28;20033;-74
2022/09/23 04:02:31;;;;;;;3.08;2.78;;;;;;;7.93;73.56;99100.88;5051064;28;20039;-75
2022/09/23 04:04:57;;;;;;;3.50;2.55;;;;;;;7.83;72.60;99097.97;5046439;28;20094;-74
2022/09/23 04:07:22;;;;;;;3.05;2.60;;;;;;;7.83;73.00;99099.81;5059484;28;20667;-74
2022/09/23 04:09:47;;;;;;;6.00;2.50;;;;;;;7.87;73.07;99100.97;5059050;28;20506;-74
2022/09/23 04:12:15;;;;;;;3.60;2.80;;;;;;;7.85;73.45;99101.22;5039630;28;20166;-74
2022/09/23 04:14:40;;;;;;;5.07;3.00;;;;;;;7.75;73.80;99086.84;5055019;28;20121;-74
2022/09/23 04:17:06;;;;;;;5.28;2.67;;;;;;;7.88;72.58;99098.13;5055034;28;20513;-76
2022/09/23 04:19:31;;;;;;;4.38;2.50;;;;;;;7.81;74.00;99092.06;5060239;28;20485;-77
2022/09/23 04:21:56;;;;;;;5.82;2.40;;;;;;;7.80;73.17;99097.63;5061064;28;20101;-76
2022/09/23 04:24:22;;;;;;;3.15;2.55;;;;;;;7.70;73.45;99095.47;5054074;28;20036;-75
2022/09/23 04:26:52;;;;;;;4.28;2.70;;;;;;;7.75;73.45;99097.47;5056626;28;20036;-74
2022/09/23 04:29:18;;;;;;;3.78;2.55;;;;;;;7.75;73.61;99089.50;5061284;28;20031;-75
2022/09/23 04:31:43;;;;;;;4.32;2.55;;;;;;;7.71;72.89;99081.16;5057402;28;20082;-78
2022/09/23 04:34:09;;;;;;;2.88;2.50;;;;;;;7.82;73.13;99088.34;5055204;28;20024;-76
2022/09/23 04:36:35;;;;;;;7.95;3.00;;;;;;;7.73;73.49;99092.38;5067373;28;20057;-75
2022/09/23 04:39:01;;;;;;;4.22;2.85;;;;;;;7.77;73.10;99087.44;5038324;28;20029;-73
2022/09/23 04:41:26;;;;;;;2.72;2.38;;;;;;;7.81;73.31;99077.97;5052375;28;20033;-76
2022/09/23 04:43:52;;;;;;;4.10;2.92;;;;;;;7.68;72.75;99086.94;5057646;28;20032;-75
2022/09/23 04:46:17;;;;;;;3.90;2.50;;;;;;;7.75;73.63;99079.69;5055076;28;20021;-76
2022/09/23 04:48:43;;;;;;;6.70;2.40;;;;;;;7.82;72.67;99080.38;5065929;28;20456;-75
2022/09/23 04:51:14;;;;;;;3.58;1.92;;;;;;;7.92;72.57;99079.88;5053988;28;20028;-75
2022/09/23 04:53:42;;;;;;;7.15;3.17;;;;;;;8.02;72.28;99074.81;5059992;28;20500;-77
2022/09/23 04:56:10;;;;;;;2.85;2.55;;;;;;;8.04;70.96;99078.03;5062715;28;20048;-77
2022/09/23 04:58:37;;;;;;;2.65;2.20;;;;;;;8.08;71.39;99080.03;5059075;28;20112;-77
2022/09/23 05:01:11;;;;;;;2.53;2.25;;;;;;;7.99;71.74;99077.94;5068510;28;20025;-76
2022/09/23 05:03:37;;;;;;;2.92;2.33;;;;;;;8.02;71.88;99080.94;5034299;28;20029;-75
2022/09/23 05:06:03;;;;;;;2.90;2.22;;;;;;;8.07;71.10;99075.75;5057707;28;20095;-76
2022/09/23 05:08:29;;;;;;;2.72;2.30;;;;;;;8.00;71.94;99080.34;5063810;28;20041;-76
2022/09/23 05:10:59;;;;;;;4.57;2.35;;;;;;;8.04;72.46;99083.34;5058333;28;20090;-74
2022/09/23 05:13:25;;;;;;;4.15;2.60;;;;;;;8.10;71.65;99085.13;5047589;28;20176;-75
2022/09/23 05:16:01;;;;;;;3.65;2.58;;;;;;;8.05;71.63;99069.88;5056304;28;20202;-75
2022/09/23 05:18:30;;;;;;;3.05;2.42;;;;;;;8.06;71.27;99073.34;5057636;28;20029;-75
2022/09/23 05:20:56;;;;;;;2.17;1.98;;;;;;;8.02;72.11;99072.97;5065053;28;20027;-75
2022/09/23 05:23:22;;;;;;;2.90;2.45;;;;;;;7.98;71.56;99063.00;5054964;28;20021;-75
2022/09/23 05:25:47;;;;;;;2.58;2.35;;;;;;;8.11;70.96;99068.13;5052212;28;20029;-75
2022/09/23 05:28:18;;;;;;;3.22;2.40;;;;;;;8.05;71.18;99066.38;5037033;28;21885;-75
2022/09/23 05:30:45;;;;;;;2.97;2.25;;;;;;;8.13;71.49;99072.19;5066030;28;20115;-75
2022/09/23 05:33:10;;;;;;;3.78;2.30;;;;;;;8.17;70.89;99068.03;5052777;28;20036;-77
2022/09/23 05:35:36;;;;;;;2.53;1.90;;;;;;;8.14;71.30;99067.69;5054478;28;20437;-75
2022/09/23 05:38:01;;;;;;;2.63;2.28;;;;;;;8.17;70.90;99068.03;5066884;28;20028;-75
2022/09/23 05:40:26;;;;;;;2.85;2.60;;;;;;;8.16;70.96;99073.59;5061579;28;20052;-75
2022/09/23 05:42:53;;;;;;;3.65;2.40;;;;;;;8.19;71.02;99065.97;5065303;28;20039;-75
2022/09/23 05:45:18;;;;;;;2.42;2.20;;;;;;;8.22;71.81;99070.00;5055038;28;20036;-74
2022/09/23 05:47:43;;;;;;;2.88;2.58;;;;;;;8.22;71.37;99067.34;5057123;28;20420;-74
2022/09/23 05:50:09;;;;;;;2.75;2.45;;;;;;;8.20;71.17;99069.44;5058185;28;20151;-74
2022/09/23 05:52:35;;;;;;;2.42;2.22;;;;;;;8.20;71.94;99070.25;5052783;28;20103;-74
2022/09/23 05:55:01;;;;;;;2.10;1.90;;;;;;;8.15;71.67;99074.59;5055412;28;20397;-75
2022/09/23 05:57:27;;;;;;;4.05;1.98;;;;;;;8.22;71.53;99070.00;5050225;28;20033;-75
2022/09/23 05:59:52;;;;;;;3.83;2.15;;;;;;;8.22;71.93;99068.16;5047208;28;20031;-75
2022/09/23 06:02:17;;;;;;;3.17;2.88;;;;;;;8.14;72.91;99067.69;5049358;28;20032;-73
2022/09/23 06:04:43;;;;;;;3.15;2.25;;;;;;;8.27;72.62;99083.47;5019093;28;20040;-73
2022/09/23 06:07:09;;;;;;;4.18;2.50;;;;;;;8.22;72.67;99076.16;5037146;28;20044;-74
2022/09/23 06:09:35;;;;;;;3.90;2.90;;;;;;;8.17;73.48;99077.84;5058200;28;20051;-74
2022/09/23 06:12:00;;;;;;;2.83;2.53;;;;;;;8.56;71.50;99079.94;5048526;28;20668;-74
2022/09/23 06:14:27;;;;;;;5.50;2.33;;;;;;;8.61;71.83;99074.75;5047062;28;20432;-73
2022/09/23 06:16:53;;;;;;;3.10;2.40;;;;;;;8.68;71.70;99074.63;5046168;28;20028;-74
2022/09/23 06:19:18;;;;;;;3.08;2.40;;;;;;;8.61;71.12;99077.41;5044631;28;20502;-74
2022/09/23 06:21:43;;;;;;;4.03;2.35;;;;;;;8.69;71.56;99081.59;5055272;28;20040;-74
2022/09/23 06:24:09;;;;;;;3.58;2.47;;;;;;;8.74;72.61;99085.16;5058870;28;20044;-75
2022/09/23 06:26:36;;;;;;;5.60;2.20;;;;;;;8.82;72.48;99084.03;5065000;28;20074;-74
2022/09/23 06:29:10;;;;;;;2.63;2.20;;;;;;;8.74;71.92;99076.34;5052606;28;20094;-74
2022/09/23 06:31:36;;;;;;;2.35;2.17;;;;;;;8.58;73.52;99082.38;5058996;28;20032;-74
2022/09/23 06:34:01;;;;;;;3.05;2.40;;;;;;;8.85;71.78;99081.69;5056574;28;20029;-74
2022/09/23 06:36:26;;;;;;;4.60;3.75;;;;;;;8.55;75.56;99080.97;5053279;28;20116;-74
2022/09/23 06:38:52;;;;;;;6.00;3.25;;;;;;;8.28;76.57;99090.41;5050915;28;20044;-74
2022/09/23 06:41:19;;;;;;;10.60;4.25;;;;;;;8.31;76.40;99084.63;5023484;28;20393;-74
2022/09/23 06:43:45;;;;;;;2.88;2.53;;;;;;;8.21;77.06;99084.38;5069915;28;20021;-74
2022/09/23 06:46:14;;;;;;;2.78;2.40;;;;;;;8.16;76.91;99084.22;5070590;28;20031;-74
2022/09/23 06:48:42;;;;;;;13.50;9.70;;;;;;;8.09;79.58;99086.16;5063454;28;20043;-74
2022/09/23 06:51:10;;;;;;;4.78;4.05;;;;;;;8.34;77.28;99078.88;5066346;28;20047;-74
2022/09/23 06:53:35;;;;;;;3.10;2.60;;;;;;;8.71;74.31;99074.19;5050017;28;20703;-74
2022/09/23 06:56:10;;;;;;;3.53;2.88;;;;;;;8.69;74.74;99074.38;5051727;28;20033;-74
2022/09/23 06:58:37;;;;;;;5.88;3.25;;;;;;;8.58;77.29;99069.91;5040646;28;20033;-74
2022/09/23 07:01:10;;;;;;;6.38;5.15;;;;;;;8.68;76.96;99075.44;5051589;28;20029;-74
2022/09/23 07:03:37;;;;;;;8.60;5.10;;;;;;;8.34;80.05;99076.22;5050914;28;20039;-74
2022/09/23 07:06:03;;;;;;;4.20;2.95;;;;;;;8.53;76.88;99075.09;5051622;28;20056;-73
2022/09/23 07:08:32;;;;;;;12.25;4.40;;;;;;;8.02;81.73;99085.44;5048711;28;20025;-73
2022/09/23 07:10:59;;;;;;;13.43;5.15;;;;;;;7.89;81.43;99075.81;5056222;28;20040;-74
2022/09/23 07:13:26;;;;;;;4.15;3.67;;;;;;;8.21;79.21;99077.16;5051203;28;20571;-74
2022/09/23 07:15:53;;;;;;;4.43;3.80;;;;;;;8.62;77.49;99071.06;5057774;28;20033;-73
2022/09/23 07:18:22;;;;;;;8.85;5.00;;;;;;;8.76;78.01;99061.78;5034333;28;20036;-74
2022/09/23 07:20:48;;;;;;;5.55;3.40;;;;;;;8.68;77.79;99066.66;5052655;28;20039;-75
2022/09/23 07:23:14;;;;;;;5.68;3.63;;;;;;;8.61;79.18;99069.41;5053904;28;20037;-74
2022/09/23 07:25:41;;;;;;;10.93;4.60;;;;;;;8.74;77.67;99063.88;5050922;28;20029;-74
2022/09/23 07:28:06;;;;;;;5.20;3.33;;;;;;;8.97;76.01;99063.88;5050612;28;20033;-74
2022/09/23 07:30:36;;;;;;;6.53;4.50;;;;;;;9.10;75.15;99062.00;5058169;28;20036;-74
2022/09/23 07:33:01;;;;;;;5.45;3.58;;;;;;;8.62;77.00;99068.38;5056270;28;20023;-74
2022/09/23 07:35:27;;;;;;;5.28;4.15;;;;;;;8.50;78.54;99062.22;5053123;28;20041;-74
2022/09/23 07:37:52;;;;;;;4.70;4.00;;;;;;;8.61;79.79;99058.78;5052189;28;20032;-74
2022/09/23 07:40:18;;;;;;;9.80;4.75;;;;;;;8.16;81.78;99070.94;5055009;28;20065;-74
2022/09/23 07:42:43;;;;;;;4.35;3.15;;;;;;;8.97;76.49;99052.41;5058334;28;20029;-74
2022/09/23 07:45:09;;;;;;;6.07;4.57;;;;;;;8.55;80.09;99050.91;5052620;28;20040;-75
2022/09/23 07:47:35;;;;;;;6.43;4.45;;;;;;;8.76;79.50;99056.47;5051930;28;20041;-75
2022/09/23 07:50:00;;;;;;;6.43;4.07;;;;;;;9.37;75.17;99058.59;5052648;28;20102;-74
2022/09/23 07:52:25;;;;;;;11.05;5.00;;;;;;;9.24;77.19;99055.41;5051070;28;20107;-75
2022/09/23 07:54:51;;;;;;;5.43;3.72;;;;;;;8.76;79.82;99064.44;5049471;28;20043;-74
2022/09/23 07:57:16;;;;;;;6.90;3.35;;;;;;;9.34;74.80;99053.75;5051580;28;20028;-74
2022/09/23 07:59:42;;;;;;;6.30;3.88;;;;;;;9.28;76.50;99060.03;5050904;28;20036;-75
2022/09/23 08:02:11;;;;;;;8.30;3.40;;;;;;;9.51;75.51;99059.13;5062362;28;20041;-74
2022/09/23 08:04:36;;;;;;;4.65;3.15;;;;;;;9.60;74.03;99058.53;5056670;28;20106;-74
2022/09/23 08:07:04;;;;;;;5.97;3.38;;;;;;;9.65;74.06;99049.84;5061829;28;20166;-74
2022/09/23 08:09:40;;;;;;;3.85;3.22;;;;;;;9.24;79.41;99052.75;5053987;28;20024;-74
2022/09/23 08:12:07;;;;;;;6.15;3.17;;;;;;;9.48;75.03;99057.75;5055321;28;20658;-74
2022/09/23 08:14:32;;;;;;;6.13;3.40;;;;;;;9.65;74.89;99053.28;5053889;28;20057;-74
2022/09/23 08:16:58;;;;;;;5.55;3.92;;;;;;;9.75;76.05;99058.03;5051880;28;20036;-73
2022/09/23 08:19:23;;;;;;;5.13;3.10;;;;;;;9.61;75.19;99062.81;5049811;28;20025;-74
2022/09/23 08:21:50;;;;;;;3.15;2.65;;;;;;;9.68;75.43;99054.69;5049698;28;20039;-74
2022/09/23 08:24:21;;;;;;;7.32;3.67;;;;;;;9.82;76.25;99053.38;5062358;28;20024;-74
2022/09/23 08:26:47;;;;;;;10.20;3.78;;;;;;;9.55;78.68;99046.97;5053778;28;20037;-74
2022/09/23 08:29:15;;;;;;;3.75;3.35;;;;;;;9.65;77.34;99055.16;5053199;28;20528;-74
2022/09/23 08:31:41;;;;;;;5.43;3.30;;;;;;;9.75;76.98;99050.84;5058072;28;20028;-75
2022/09/23 08:34:07;;;;;;;10.63;5.57;;;;;;;9.84;78.47;99048.59;5050706;28;20032;-74
2022/09/23 08:36:33;;;;;;;5.10;4.40;;;;;;;10.03;77.42;99041.19;5051253;28;20441;-74
2022/09/23 08:38:58;;;;;;;4.50;2.88;;;;;;;10.23;74.35;99045.06;5052423;28;20051;-73
2022/09/23 08:41:56;;;;;;;5.40;3.58;;;;;;;10.22;77.53;99046.09;5052334;28;20116;-75
2022/09/23 08:44:37;;;;;;;4.45;3.33;;;;;;;10.22;75.76;99045.31;5045410;28;20039;-75
2022/09/23 08:47:16;;;;;;;4.82;2.97;;;;;;;10.33;75.38;99041.78;5060258;28;20073;-75
2022/09/23 08:49:54;;;;;;;3.65;2.60;;;;;;;10.48;74.85;99037.47;5080087;28;20036;-75
2022/09/23 08:52:31;;;;;;;4.80;2.85;;;;;;;10.51;74.54;99044.19;5078656;28;20020;-75
2022/09/23 08:54:57;;;;;;;4.13;2.95;;;;;;;10.46;75.85;99036.91;5055532;28;20032;-76
2022/09/23 08:57:38;;;;;;;3.85;3.08;;;;;;;10.47;76.13;99033.19;5039633;28;20040;-75
2022/09/23 09:00:18;;;;;;;3.63;3.10;;;;;;;10.61;75.76;99033.69;5065798;28;20027;-75
2022/09/23 09:02:44;;;;;;;9.43;3.22;;;;;;;10.68;75.57;99034.28;5072119;28;20028;-73
2022/09/23 09:05:11;;;;;;;4.32;3.05;;;;;;;10.63;75.60;99026.22;5036593;28;20091;-73
2022/09/23 09:07:40;;;;;;;4.60;3.67;;;;;;;10.79;75.21;99036.06;5056481;28;20028;-73
2022/09/23 09:10:21;;;;;;;4.80;2.88;;;;;;;10.81;75.08;99041.97;5054400;28;20052;-73
2022/09/23 09:13:05;;;;;;;12.43;4.13;;;;;;;10.74;75.33;99038.69;5060084;28;20033;-73
2022/09/23 09:15:34;;;;;;;4.05;2.90;;;;;;;10.91;74.50;99028.78;5060252;28;20493;-73
2022/09/23 09:18:18;;;;;;;3.22;2.90;;;;;;;11.12;73.92;99025.31;5061069;28;20166;-73
2022/09/23 09:20:49;;;;;;;5.00;3.58;;;;;;;11.09;75.38;99028.50;5052723;28;20503;-74
2022/09/23 09:23:35;;;;;;;9.27;3.58;;;;;;;11.13;75.20;99034.16;5056559;28;20120;-74
2022/09/23 09:26:01;;;;;;;4.93;3.13;;;;;;;11.24;74.06;99034.03;5055996;28;20033;-73
2022/09/23 09:28:39;;;;;;;6.55;3.28;;;;;;;11.27;72.72;99032.72;5056900;28;20040;-73
2022/09/23 09:31:21;;;;;;;3.42;2.63;;;;;;;11.40;72.58;99027.00;5054913;28;20029;-74
2022/09/23 09:33:56;;;;;;;5.85;3.03;;;;;;;11.33;73.88;99021.84;5059350;28;20397;-73
2022/09/23 09:36:43;;;;;;;6.07;3.20;;;;;;;11.50;74.09;99021.78;5049842;28;20469;-73
2022/09/23 09:39:12;;;;;;;4.10;3.22;;;;;;;11.54;74.23;99019.41;5071443;28;20511;-73
2022/09/23 09:41:42;;;;;;;5.72;3.08;;;;;;;11.62;72.18;99021.66;5059008;28;20032;-73
2022/09/23 09:44:29;;;;;;;3.65;2.92;;;;;;;11.73;71.52;99013.50;5066728;28;20069;-73
2022/09/23 09:47:28;;;;;;;3.75;2.78;;;;;;;11.79;71.31;99023.22;5069368;28;20036;-73
2022/09/23 09:50:05;;;;;;;5.82;3.40;;;;;;;11.83;71.11;99010.97;5075123;28;20392;-73
2022/09/23 09:52:31;;;;;;;6.70;3.10;;;;;;;11.87;71.48;99001.38;5070482;28;20059;-73
2022/09/23 09:55:27;;;;;;;5.45;3.33;;;;;;;11.88;72.04;99005.63;5060228;28;20075;-73
2022/09/23 09:58:02;;;;;;;9.63;3.17;;;;;;;11.92;71.53;99001.44;5049618;28;20047;-73
2022/09/23 10:00:29;;;;;;;3.40;2.78;;;;;;;12.02;71.40;99004.19;5057584;28;20040;-74
2022/09/23 10:03:02;;;;;;;6.70;2.70;;;;;;;12.21;70.77;98991.22;5062577;28;20146;-73
2022/09/23 10:05:47;;;;;;;2.90;2.50;;;;;;;12.31;70.49;98985.16;5069937;28;20024;-73
2022/09/23 10:08:26;;;;;;;3.42;2.50;;;;;;;12.37;70.09;98992.16;5072817;28;20028;-74
2022/09/23 10:11:17;;;;;;;4.75;2.88;;;;;;;12.39;69.64;98984.66;5064358;28;20029;-73
2022/09/23 10:14:05;;;;;;;3.85;2.08;;;;;;;12.51;69.28;98980.78;5060528;28;20025;-73
2022/09/23 10:16:33;;;;;;;3.40;2.58;;;;;;;12.65;69.13;98973.06;5065266;28;20028;-74
2022/09/23 10:19:10;;;;;;;3.90;2.38;;;;;;;12.71;68.72;98972.84;5061226;28;20114;-73
2022/09/23 10:21:36;;;;;;;6.22;2.65;;;;;;;12.78;68.38;98968.06;5063188;28;20063;-76
2022/09/23 10:24:06;;;;;;;3.25;2.63;;;;;;;12.89;67.90;98965.47;5069010;28;20037;-76
2022/09/23 10:26:38;;;;;;;6.85;3.22;;;;;;;13.06;68.13;98966.13;5060146;28;20029;-77
2022/09/23 10:29:18;;;;;;;3.45;2.70;;;;;;;13.12;67.89;98965.88;5047830;28;20094;-75
2022/09/23 10:31:44;;;;;;;3.53;2.63;;;;;;;13.21;67.80;98969.66;5043022;28;20048;-76
2022/09/23 10:34:26;;;;;;;2.72;2.20;;;;;;;13.16;67.16;98964.28;5069576;28;20637;-76
2022/09/23 10:37:02;;;;;;;3.17;2.15;;;;;;;13.08;67.35;98964.78;5070177;28;20078;-76
2022/09/23 10:48:18;;;;;;;2.78;2.33;;;;;;;13.26;65.45;98950.91;5056444;28;20135;-73
2022/09/23 10:50:48;;;;;;;2.90;2.17;;;;;;;13.24;66.07;98954.91;5066657;28;20034;-74
2022/09/23 10:53:22;;;;;;;2.17;1.98;;;;;;;13.37;65.48;98944.50;5052549;28;20037;-74
2022/09/23 10:56:05;;;;;;;2.25;2.05;;;;;;;13.51;65.57;98947.50;5069963;28;20035;-75
2022/09/23 10:58:46;;;;;;;2.88;2.40;;;;;;;13.73;64.23;98945.41;5068738;28;20016;-75
2022/09/23 11:01:12;;;;;;;3.10;2.35;;;;;;;13.84;64.47;98947.03;5057615;28;20060;-74
2022/09/23 11:03:57;;;;;;;2.60;2.40;;;;;;;13.98;62.17;98934.66;5060704;28;20032;-73
2022/09/23 11:06:49;;;;;;;3.30;2.25;;;;;;;14.15;63.61;98931.75;5053119;28;20028;-73
2022/09/23 11:09:23;;;;;;;2.40;2.20;;;;;;;14.42;62.97;98929.56;5041193;28;20021;-73
2022/09/23 11:12:34;;;;;;;2.30;2.00;;;;;;;14.66;57.54;98925.22;5057050;28;20032;-73
2022/09/23 11:15:02;;;;;;;4.20;2.45;;;;;;;14.81;59.83;98930.56;4992627;28;20501;-73
2022/09/23 11:17:46;;;;;;;2.97;1.67;;;;;;;14.58;63.05;98925.81;5059911;28;20032;-73
2022/09/23 11:21:03;;;;;;;1.92;1.83;;;;;;;14.66;61.12;98911.81;5040806;28;20611;-73
2022/09/23 11:23:58;;;;;;;3.50;2.28;;;;;;;14.66;62.28;98917.16;5013559;28;20041;-73
2022/09/23 11:26:54;;;;;;;3.28;2.50;;;;;;;14.70;62.32;98910.16;5054708;28;20032;-73
2022/09/23 11:29:41;;;;;;;1.92;1.83;;;;;;;14.79;60.71;98905.84;5049097;28;20102;-73
2022/09/23 11:32:34;;;;;;;2.40;2.20;;;;;;;14.91;58.96;98902.84;5054346;28;20036;-73
2022/09/23 11:35:23;;;;;;;2.40;2.10;;;;;;;14.86;61.53;98900.19;5058855;28;20039;-73
2022/09/23 11:38:05;;;;;;;5.57;2.13;;;;;;;14.86;61.36;98892.94;5044131;28;20043;-75
2022/09/23 11:40:35;;;;;;;4.18;2.35;;;;;;;14.83;61.22;98885.41;5062436;28;20024;-73
2022/09/23 11:43:24;;;;;;;3.40;3.10;;;;;;;14.87;60.40;98877.63;5041738;28;20428;-73
2022/09/23 11:46:17;;;;;;;1.83;1.73;;;;;;;14.86;57.87;98879.50;5056801;28;20043;-73
2022/09/23 11:49:02;;;;;;;2.58;2.25;;;;;;;14.84;56.57;98870.91;5055687;28;20035;-73
2022/09/23 11:51:38;;;;;;;19.65;10.98;;;;;;;14.95;60.08;98867.09;5054633;28;20025;-73
2022/09/23 11:54:15;;;;;;;8.95;4.68;;;;;;;15.07;60.74;98872.13;5062465;28;20027;-73
2022/09/23 11:56:55;;;;;;;25.27;11.73;;;;;;;15.15;59.71;98870.75;5056041;28;20083;-73
2022/09/23 11:59:45;;;;;;;49.72;28.70;;;;;;;15.18;58.07;98868.31;5066686;28;20027;-73
2022/09/23 12:02:29;;;;;;;7.72;3.95;;;;;;;15.30;60.66;98866.09;5047530;28;20416;-73
2022/09/23 12:05:05;;;;;;;2.53;2.30;;;;;;;15.37;58.20;98865.78;5047437;28;20029;-73
2022/09/23 12:07:52;;;;;;;5.60;4.00;;;;;;;15.48;59.78;98868.16;5039570;28;20025;-73
2022/09/23 12:10:20;;;;;;;5.78;3.80;;;;;;;15.46;58.80;98869.53;5063457;28;20033;-73
2022/09/23 12:13:07;;;;;;;4.63;2.78;;;;;;;15.57;59.24;98863.00;5060784;28;20040;-73
2022/09/23 12:15:55;;;;;;;3.58;3.03;;;;;;;15.68;59.04;98859.16;5041318;28;20021;-73